Time;durP1;ratioP1;P1;durP2;ratioP2;P2;SDS_P1;SDS_P2;PMS_P1;PMS_P2;Temp;Humidity;BMP_temperature;BMP_pressure;BME280_temperature;BME280_humidity;BME280_pressure;Samples;Min_cycle;Max_cycle;Signal;HPM_P1;HPM_P2
2022/12/22 03:31:06;;;;;;;11.38;8.15;;;;;;;20.16;48.68;100403.28;20869792;28;20429;-82
2022/12/22 03:41:06;;;;;;;14.30;8.70;;;;;;;20.12;48.89;100393.97;20852611;28;20138;-82
2022/12/22 03:51:10;;;;;;;10.32;7.50;;;;;;;20.12;48.28;100378.19;20866079;28;20045;-82
2022/12/22 04:01:11;;;;;;;10.95;8.27;;;;;;;20.12;48.70;100391.34;20838588;28;20120;-84
2022/12/22 04:21:32;;;;;;;12.13;8.32;;;;;;;20.13;49.35;100400.91;20880912;28;20040;-85
2022/12/22 04:31:34;;;;;;;12.13;8.13;;;;;;;20.14;49.18;100403.41;20851108;28;20055;-83
2022/12/22 04:41:34;;;;;;;11.02;7.82;;;;;;;20.17;48.56;100396.25;20875237;28;20079;-84
2022/12/22 04:51:35;;;;;;;12.25;8.07;;;;;;;20.17;48.98;100394.47;20871310;28;20037;-85
2022/12/22 05:01:36;;;;;;;10.38;7.47;;;;;;;20.16;48.65;100384.88;20884388;28;20559;-86
2022/12/22 05:11:37;;;;;;;12.50;7.93;;;;;;;20.20;48.32;100386.38;20876931;28;20525;-84
2022/12/22 05:21:38;;;;;;;9.88;7.75;;;;;;;20.27;48.62;100387.56;20852285;28;20040;-84
2022/12/22 05:31:39;;;;;;;10.70;7.40;;;;;;;20.36;48.83;100383.44;20846383;28;20051;-85
2022/12/22 05:41:40;;;;;;;12.55;8.18;;;;;;;20.42;48.23;100396.13;20869819;28;20056;-86
2022/12/22 05:51:40;;;;;;;12.45;7.95;;;;;;;20.48;48.34;100379.03;20860309;28;20484;-84
2022/12/22 06:01:41;;;;;;;11.57;7.75;;;;;;;20.56;48.79;100384.56;20863116;28;20029;-85
2022/12/22 06:11:41;;;;;;;12.77;8.02;;;;;;;20.63;48.35;100388.41;20849902;28;20534;-85
2022/12/22 06:21:42;;;;;;;10.02;7.20;;;;;;;20.69;48.53;100392.41;20852914;28;20040;-85
2022/12/22 06:31:43;;;;;;;10.75;7.47;;;;;;;20.74;48.40;100405.25;20843495;28;20056;-81
2022/12/22 06:52:07;;;;;;;10.65;7.53;;;;;;;20.92;50.20;100400.34;20878709;28;20071;-82
2022/12/22 07:02:11;;;;;;;11.10;7.32;;;;;;;21.02;50.04;100414.50;20865838;28;20479;-84
2022/12/22 07:12:12;;;;;;;10.25;6.95;;;;;;;21.08;50.21;100406.13;20874697;28;20072;-83
2022/12/22 07:22:12;;;;;;;11.80;7.30;;;;;;;21.18;50.32;100398.38;20856269;28;20041;-84
2022/12/22 07:32:13;;;;;;;11.93;7.03;;;;;;;21.26;50.21;100411.78;20862146;28;20499;-84
2022/12/22 07:52:32;;;;;;;12.07;7.63;;;;;;;21.35;50.41;100419.91;20872065;28;21192;-86
2022/12/22 08:02:33;;;;;;;16.58;9.30;;;;;;;21.40;50.29;100433.59;20829055;28;20036;-83
2022/12/22 08:12:34;;;;;;;23.13;11.57;;;;;;;21.43;49.19;100415.75;20830081;28;20258;-85
2022/12/22 08:22:35;;;;;;;17.70;10.85;;;;;;;21.45;49.51;100426.16;20837474;28;20852;-83
2022/12/22 08:32:38;;;;;;;22.23;14.45;;;;;;;21.48;48.85;100419.81;20851852;28;20404;-82
2022/12/22 08:42:41;;;;;;;20.65;12.65;;;;;;;21.49;49.16;100408.31;20866661;28;20045;-82
2022/12/22 08:52:42;;;;;;;28.42;13.05;;;;;;;21.48;48.93;100412.72;20838514;28;20587;-80
2022/12/22 09:02:42;;;;;;;18.80;13.07;;;;;;;21.48;49.04;100411.91;20857675;28;20107;-80
2022/12/22 09:12:46;;;;;;;23.35;13.75;;;;;;;21.43;48.75;100389.41;20847365;28;20456;-80
2022/12/22 09:22:47;;;;;;;22.65;13.02;;;;;;;21.42;48.12;100394.78;20880715;28;20049;-80
2022/12/22 09:32:47;;;;;;;18.67;12.48;;;;;;;21.37;48.05;100365.31;20868436;28;20045;-79
2022/12/22 09:42:47;;;;;;;20.58;13.45;;;;;;;21.32;47.71;100370.13;20853370;28;20201;-79
2022/12/22 09:53:03;;;;;;;19.98;12.90;;;;;;;21.27;47.79;100359.94;20828625;28;20124;-77
2022/12/22 10:03:19;;;;;;;18.35;12.20;;;;;;;21.24;47.47;100349.66;20867386;28;20114;-80
2022/12/22 10:13:20;;;;;;;20.33;13.10;;;;;;;21.22;46.90;100356.84;20864886;28;20591;-78
2022/12/22 10:23:28;;;;;;;19.48;13.10;;;;;;;21.18;47.10;100334.31;20852295;28;20502;-77
2022/12/22 10:33:33;;;;;;;21.75;13.85;;;;;;;21.18;47.05;100337.81;20867870;28;20037;-79
2022/12/22 10:43:38;;;;;;;19.77;13.32;;;;;;;21.17;46.87;100307.16;20866520;28;20137;-79
2022/12/22 10:53:54;;;;;;;20.67;13.82;;;;;;;21.14;45.45;100289.00;20871972;28;20183;-79
2022/12/22 11:04:08;;;;;;;21.23;14.85;;;;;;;21.16;46.19;100300.22;20851965;28;21793;-79
2022/12/22 11:14:29;;;;;;;22.35;13.95;;;;;;;21.29;46.49;100294.81;20850814;28;20523;-76
2022/12/22 11:24:41;;;;;;;24.25;14.57;;;;;;;21.43;46.91;100284.03;20860329;28;20041;-78
2022/12/22 11:35:20;;;;;;;32.25;15.15;;;;;;;21.53;46.23;100280.63;20821021;28;20411;-77
2022/12/22 11:46:12;;;;;;;27.85;13.98;;;;;;;21.51;46.70;100272.03;20815490;28;20079;-78
2022/12/22 11:56:12;;;;;;;23.37;13.50;;;;;;;21.46;46.84;100287.34;20771759;28;20067;-76
2022/12/22 12:06:25;;;;;;;28.70;13.73;;;;;;;21.39;47.62;100269.41;20858415;28;20052;-77
2022/12/22 12:16:38;;;;;;;19.20;12.65;;;;;;;21.39;47.38;100269.41;20866370;28;20064;-78
2022/12/22 12:27:04;;;;;;;19.50;12.48;;;;;;;21.35;48.73;100269.78;20859328;28;20059;-77
2022/12/22 12:37:19;;;;;;;19.75;12.77;;;;;;;21.35;49.08;100270.63;20851918;28;21881;-75
2022/12/22 12:47:24;;;;;;;25.95;16.98;;;;;;;21.19;46.46;100304.41;20856939;28;20041;-74
2022/12/22 12:57:46;;;;;;;24.27;15.57;;;;;;;21.24;47.94;100305.72;20849674;28;20053;-75
2022/12/22 13:08:24;;;;;;;29.48;15.52;;;;;;;21.26;48.37;100285.38;20827129;28;20516;-76
2022/12/22 13:18:24;;;;;;;23.30;14.43;;;;;;;21.23;48.23;100267.19;20853634;28;20664;-76
2022/12/22 13:28:26;;;;;;;23.42;14.05;;;;;;;21.26;48.39;100229.22;20859953;28;20037;-75
2022/12/22 13:38:35;;;;;;;19.13;12.77;;;;;;;21.25;48.61;100238.94;20846634;28;20041;-79
2022/12/22 13:48:44;;;;;;;26.58;13.65;;;;;;;21.27;48.80;100202.75;20825085;28;20044;-78
2022/12/22 13:58:46;;;;;;;30.40;13.25;;;;;;;21.32;49.22;100206.84;20832701;28;20059;-74
2022/12/22 14:08:46;;;;;;;40.10;23.23;;;;;;;21.14;42.62;100167.88;20855912;28;20057;-75
2022/12/22 14:18:47;;;;;;;35.75;17.95;;;;;;;21.07;45.04;100217.53;20839405;28;20158;-74
2022/12/22 14:28:53;;;;;;;63.35;18.73;;;;;;;21.11;47.14;100192.63;20866029;28;20071;-78
2022/12/22 14:38:54;;;;;;;42.70;16.30;;;;;;;21.22;47.89;100217.28;20824944;28;20045;-75
2022/12/22 14:48:59;;;;;;;37.47;13.95;;;;;;;21.30;48.52;100250.88;20861940;28;20041;-78
2022/12/22 14:59:23;;;;;;;37.35;12.77;;;;;;;21.34;49.76;100239.16;20848266;28;20836;-79
2022/12/22 15:09:26;;;;;;;40.70;15.52;;;;;;;21.26;48.60;100213.41;20852555;28;20041;-77
2022/12/22 15:19:31;;;;;;;;;;;;;;;21.31;48.86;100213.06;20837343;28;20057;-85
2022/12/22 15:29:32;;;;;;;27.50;13.80;;;;;;;21.40;49.30;100201.78;20876509;28;19925;-78
2022/12/22 15:39:34;;;;;;;;;;;;;;;21.37;49.03;100191.47;20857680;28;20049;-75
2022/12/22 15:49:34;;;;;;;26.98;12.55;;;;;;;21.39;49.34;100174.59;20850672;28;19928;-77
2022/12/22 15:59:36;;;;;;;24.63;12.77;;;;;;;21.39;49.50;100143.00;20868314;28;20142;-78
2022/12/22 16:09:43;;;;;;;25.33;11.95;;;;;;;21.39;48.99;100160.59;20892032;28;20309;-79
2022/12/22 16:19:44;;;;;;;19.60;11.15;;;;;;;21.47;48.90;100171.34;20851724;28;20048;-79
2022/12/22 16:29:51;;;;;;;22.10;11.38;;;;;;;21.49;48.74;100195.75;20839591;28;20029;-79
2022/12/22 16:39:53;;;;;;;22.90;10.98;;;;;;;21.56;48.55;100209.28;20855391;28;20506;-81
2022/12/22 16:49:54;;;;;;;22.30;11.23;;;;;;;21.54;49.04;100203.28;20867478;28;20029;-78
2022/12/22 16:59:54;;;;;;;24.02;10.93;;;;;;;21.59;49.29;100204.63;20897618;28;20049;-83
2022/12/22 17:10:00;;;;;;;17.90;11.15;;;;;;;21.61;48.60;100207.13;20909359;28;20411;-84
2022/12/22 17:20:01;;;;;;;17.40;10.80;;;;;;;21.61;48.70;100187.84;20843196;28;21749;-80
2022/12/22 17:30:03;;;;;;;21.20;11.18;;;;;;;21.63;48.92;100185.91;20845873;28;20039;-85
2022/12/22 17:40:04;;;;;;;17.70;10.27;;;;;;;21.61;48.95;100182.59;20844358;28;20049;-83
2022/12/22 17:50:05;;;;;;;20.48;11.15;;;;;;;21.62;49.06;100192.13;20853461;28;20048;-82
2022/12/22 18:00:16;;;;;;;20.20;10.80;;;;;;;21.66;48.94;100191.75;20840204;28;20401;-83
2022/12/22 18:10:23;;;;;;;20.50;10.90;;;;;;;21.56;49.45;100194.31;20839717;28;20059;-80
2022/12/22 18:20:25;;;;;;;27.58;13.82;;;;;;;21.55;48.91;100197.06;20831459;28;20048;-78
2022/12/22 18:30:28;;;;;;;24.42;13.43;;;;;;;21.61;50.19;100193.13;20840588;28;20156;-80
2022/12/22 18:40:31;;;;;;;26.70;13.50;;;;;;;21.66;51.09;100190.94;20860578;28;20063;-80
2022/12/22 18:50:32;;;;;;;35.05;14.68;;;;;;;21.66;51.50;100160.13;20872016;28;20098;-79
2022/12/22 19:00:35;;;;;;;27.80;15.40;;;;;;;21.71;51.52;100122.88;20866782;28;20515;-81
2022/12/22 19:10:44;;;;;;;25.13;15.20;;;;;;;21.68;50.99;100131.88;20871441;28;20132;-82
2022/12/22 19:20:46;;;;;;;26.40;14.77;;;;;;;21.69;51.01;100138.81;20865602;28;20046;-79
2022/12/22 19:30:47;;;;;;;26.05;14.68;;;;;;;21.66;51.32;100125.06;20865459;28;20044;-78
2022/12/22 19:40:49;;;;;;;23.85;13.73;;;;;;;21.65;50.70;100112.84;20845825;28;20041;-77
2022/12/22 19:50:52;;;;;;;22.20;13.88;;;;;;;21.65;50.85;100097.03;20836328;28;20052;-76
2022/12/22 20:00:53;;;;;;;;;;;;;;;21.55;50.55;100092.50;20851018;28;20037;-78
2022/12/22 20:10:54;;;;;;;21.00;12.57;;;;;;;21.58;50.44;100110.72;20848071;28;19970;-77
2022/12/22 20:20:59;;;;;;;21.15;12.35;;;;;;;21.58;50.40;100112.50;20849376;28;20432;-78
2022/12/22 20:31:02;;;;;;;21.80;12.27;;;;;;;21.49;50.56;100100.09;20816357;28;20037;-78
2022/12/22 20:41:09;;;;;;;26.50;14.20;;;;;;;21.32;50.18;100085.69;20839414;28;20037;-82
2022/12/22 20:51:17;;;;;;;27.13;13.48;;;;;;;21.32;49.93;100080.41;20859237;28;20171;-83
2022/12/22 21:01:18;;;;;;;26.35;13.32;;;;;;;21.27;50.18;100070.25;20894687;28;20080;-82
2022/12/22 21:11:19;;;;;;;21.73;12.38;;;;;;;21.27;50.38;100068.44;20884028;28;20157;-83
2022/12/22 21:21:21;;;;;;;20.05;11.98;;;;;;;21.22;50.62;100065.38;20895840;28;20029;-82
2022/12/22 21:31:21;;;;;;;19.20;11.73;;;;;;;21.15;50.47;100064.19;20923030;28;20055;-83
2022/12/22 21:41:58;;;;;;;20.35;11.73;;;;;;;21.14;50.88;100075.72;20901846;28;20025;-83
2022/12/22 21:51:48;;;;;;;22.55;12.38;;;;;;;21.06;50.93;100047.38;20804762;28;20045;-82
2022/12/22 22:01:52;;;;;;;20.65;11.98;;;;;;;21.04;50.85;100056.34;20777737;28;20042;-82
2022/12/22 22:22:11;;;;;;;19.25;11.13;;;;;;;20.93;50.81;100039.66;20810671;28;20037;-83
2022/12/22 22:32:12;;;;;;;18.67;11.77;;;;;;;20.90;50.87;100042.53;20797588;28;20048;-83
2022/12/22 22:42:12;;;;;;;18.77;12.13;;;;;;;20.86;51.16;100035.00;20801793;28;20044;-83
2022/12/22 22:52:13;;;;;;;17.58;11.20;;;;;;;20.80;51.13;100025.84;20857961;28;20048;-83
2022/12/22 23:02:14;;;;;;;18.10;10.88;;;;;;;20.80;50.93;100012.69;20855466;28;20057;-82
2022/12/22 23:12:16;;;;;;;15.93;10.63;;;;;;;20.79;50.95;100026.78;20840764;28;20083;-85
2022/12/22 23:22:16;;;;;;;16.48;10.88;;;;;;;20.77;51.14;100007.66;20854022;28;20036;-82
2022/12/22 23:32:17;;;;;;;18.25;11.30;;;;;;;20.74;51.41;100003.47;20889888;28;20514;-82
2022/12/22 23:42:17;;;;;;;14.95;9.57;;;;;;;20.73;51.13;100004.44;20865038;28;20037;-82
2022/12/22 23:52:19;;;;;;;15.82;10.05;;;;;;;20.70;51.42;100017.81;20846055;28;20056;-82
